createdAt,value
2019-03-27T00:01:01.123Z,1020.8
2019-03-27T00:02:03.728Z,1020.8
2019-03-27T00:03:06.171Z,1020.8
2019-03-27T00:04:08.533Z,1020.8
2019-03-27T00:05:10.566Z,1020.9
2019-03-27T00:06:12.613Z,1020.9
2019-03-27T00:07:14.920Z,1020.8
2019-03-27T00:08:17.351Z,1020.8
2019-03-27T00:09:19.385Z,1020.8
2019-03-27T00:10:21.408Z,1020.8
2019-03-27T00:11:23.438Z,1020.9
2019-03-27T00:12:25.483Z,1020.8
2019-03-27T00:13:27.812Z,1020.9
2019-03-27T00:14:29.851Z,1020.8
2019-03-27T00:15:31.904Z,1020.8
2019-03-27T00:16:34.793Z,1020.8
2019-03-27T00:17:36.839Z,1020.8
2019-03-27T00:18:38.885Z,1020.8
2019-03-27T00:19:40.912Z,1020.8
2019-03-27T00:20:43.022Z,1020.8
2019-03-27T00:21:45.076Z,1020.7
2019-03-27T00:22:47.398Z,1020.8
2019-03-27T00:23:49.438Z,1020.8
2019-03-27T00:24:51.770Z,1020.7
2019-03-27T00:25:53.795Z,1020.8
2019-03-27T00:26:56.120Z,1020.8
2019-03-27T00:27:58.440Z,1020.7
2019-03-27T00:29:00.480Z,1020.8
2019-03-27T00:30:02.498Z,1020.7
2019-03-27T00:31:04.542Z,1020.8
2019-03-27T00:32:06.878Z,1020.8
2019-03-27T00:33:08.903Z,1020.8
2019-03-27T00:34:10.951Z,1020.8
2019-03-27T00:35:12.976Z,1020.8
2019-03-27T00:36:15.295Z,1020.8
2019-03-27T00:37:17.353Z,1020.9
2019-03-27T00:38:19.383Z,1020.9
2019-03-27T00:39:21.712Z,1020.8
2019-03-27T00:40:23.752Z,1020.9
2019-03-27T00:41:25.776Z,1020.9
2019-03-27T00:42:27.810Z,1020.9
2019-03-27T00:43:29.852Z,1021
2019-03-27T00:44:31.882Z,1020.9
2019-03-27T00:45:33.910Z,1021
2019-03-27T00:46:35.950Z,1020.9
2019-03-27T00:47:37.981Z,1020.9
2019-03-27T00:48:40.035Z,1020.9
2019-03-27T00:49:42.486Z,1020.9
2019-03-27T00:50:44.598Z,1020.9
2019-03-27T00:51:46.635Z,1020.9
2019-03-27T00:52:48.678Z,1020.9
2019-03-27T00:53:50.715Z,1020.9
2019-03-27T00:54:52.744Z,1020.8
2019-03-27T00:55:54.779Z,1020.8
2019-03-27T00:56:56.866Z,1020.8
2019-03-27T00:57:58.891Z,1020.8
2019-03-27T00:59:00.931Z,1020.8
2019-03-27T01:00:03.046Z,1020.8
2019-03-27T01:01:05.080Z,1020.8
2019-03-27T01:02:07.404Z,1020.9
2019-03-27T01:03:09.449Z,1020.8
2019-03-27T01:04:11.477Z,1020.8
2019-03-27T01:05:13.531Z,1020.8
2019-03-27T01:06:15.569Z,1020.8
2019-03-27T01:07:17.611Z,1020.9
2019-03-27T01:08:19.654Z,1020.9
2019-03-27T01:09:21.692Z,1020.8
2019-03-27T01:10:23.716Z,1020.9
2019-03-27T01:11:26.025Z,1020.9
2019-03-27T01:12:28.058Z,1020.9
2019-03-27T01:13:30.093Z,1020.9
2019-03-27T01:14:32.122Z,1020.9
2019-03-27T01:15:40.413Z,1020.9
2019-03-27T01:16:42.484Z,1020.9
2019-03-27T01:17:44.523Z,1020.8
2019-03-27T01:18:46.941Z,1020.9
2019-03-27T01:19:48.980Z,1020.9
2019-03-27T01:20:51.005Z,1020.9
2019-03-27T01:21:53.028Z,1020.8
2019-03-27T01:22:55.452Z,1020.9
2019-03-27T01:23:57.492Z,1020.9
2019-03-27T01:24:59.805Z,1020.9
2019-03-27T01:26:02.014Z,1020.8
2019-03-27T01:27:04.337Z,1020.8
2019-03-27T01:28:06.358Z,1020.8
2019-03-27T01:29:08.402Z,1020.8
2019-03-27T01:30:10.434Z,1020.8
2019-03-27T01:31:12.461Z,1020.8
2019-03-27T01:32:14.518Z,1020.8
2019-03-27T01:33:16.538Z,1020.8
2019-03-27T01:34:18.958Z,1020.8
2019-03-27T01:35:21.018Z,1020.8
2019-03-27T01:36:23.089Z,1020.8
2019-03-27T01:37:25.851Z,1020.8
2019-03-27T01:38:29.220Z,1020.9
2019-03-27T01:39:31.261Z,1020.8
2019-03-27T01:40:33.287Z,1020.8
2019-03-27T01:41:35.345Z,1020.8
2019-03-27T01:42:37.669Z,1020.8
2019-03-27T01:43:39.987Z,1020.8
2019-03-27T01:44:42.022Z,1020.8
2019-03-27T01:45:53.570Z,1020.8
2019-03-27T01:46:55.915Z,1020.8
2019-03-27T01:47:58.344Z,1020.8
2019-03-27T01:49:00.374Z,1020.8
2019-03-27T01:50:02.686Z,1020.8
2019-03-27T01:51:04.720Z,1020.8
2019-03-27T01:52:08.712Z,1020.8
2019-03-27T01:53:11.119Z,1020.9
2019-03-27T01:54:13.157Z,1020.8
2019-03-27T01:55:15.280Z,1020.8
2019-03-27T01:56:17.302Z,1020.9
2019-03-27T01:57:19.735Z,1020.9
2019-03-27T01:58:21.769Z,1020.9
2019-03-27T01:59:23.800Z,1020.9
2019-03-27T02:00:25.827Z,1020.9
2019-03-27T02:01:27.882Z,1020.8
2019-03-27T02:02:29.922Z,1020.9
2019-03-27T02:03:31.962Z,1020.9
2019-03-27T02:04:34.004Z,1020.9
2019-03-27T02:05:36.019Z,1020.9
2019-03-27T02:06:38.147Z,1020.8
2019-03-27T02:07:40.177Z,1020.9
2019-03-27T02:08:42.488Z,1020.9
2019-03-27T02:09:44.900Z,1020.9
2019-03-27T02:10:46.940Z,1020.9
2019-03-27T02:11:48.969Z,1020.9
2019-03-27T02:12:51.391Z,1020.9
2019-03-27T02:13:53.445Z,1020.9
2019-03-27T02:14:55.860Z,1020.9
2019-03-27T02:16:07.515Z,1021
2019-03-27T02:17:09.901Z,1020.9
2019-03-27T02:18:12.045Z,1020.8
2019-03-27T02:19:14.357Z,1020.9
2019-03-27T02:20:16.684Z,1020.9
2019-03-27T02:21:18.704Z,1020.8
2019-03-27T02:22:21.043Z,1020.9
2019-03-27T02:23:23.375Z,1020.9
2019-03-27T02:24:25.404Z,1020.9
2019-03-27T02:25:27.710Z,1020.9
2019-03-27T02:26:29.753Z,1020.9
2019-03-27T02:27:31.779Z,1020.9
2019-03-27T02:28:33.807Z,1020.9
2019-03-27T02:29:36.145Z,1021
2019-03-27T02:30:39.137Z,1021
2019-03-27T02:31:41.276Z,1021
2019-03-27T02:32:43.315Z,1021
2019-03-27T02:33:45.776Z,1021
2019-03-27T02:34:48.000Z,1021
2019-03-27T02:35:50.322Z,1021
2019-03-27T02:36:52.364Z,1021
2019-03-27T02:37:55.289Z,1021
2019-03-27T02:38:58.428Z,1021
2019-03-27T02:40:00.767Z,1021
2019-03-27T02:41:03.476Z,1020.9
2019-03-27T02:42:05.621Z,1020.9
2019-03-27T02:43:07.659Z,1020.9
2019-03-27T02:44:10.286Z,1020.9
2019-03-27T02:45:12.996Z,1020.9
2019-03-27T02:46:25.684Z,1020.9
2019-03-27T02:47:28.103Z,1020.9
2019-03-27T02:48:30.992Z,1020.9
2019-03-27T02:49:33.690Z,1020.9
2019-03-27T02:50:36.448Z,1020.9
2019-03-27T02:51:38.513Z,1020.9
2019-03-27T02:52:40.858Z,1020.8
2019-03-27T02:53:42.947Z,1020.8
2019-03-27T02:54:45.027Z,1020.8
2019-03-27T02:55:47.080Z,1020.8
2019-03-27T02:56:49.195Z,1020.8
2019-03-27T02:57:51.534Z,1020.8
2019-03-27T02:58:53.603Z,1020.9
2019-03-27T02:59:56.037Z,1020.9
2019-03-27T03:00:58.408Z,1020.9
2019-03-27T03:02:01.037Z,1020.9
2019-03-27T03:03:03.798Z,1020.9
2019-03-27T03:04:06.946Z,1020.9
2019-03-27T03:05:08.984Z,1020.9
2019-03-27T03:06:11.723Z,1020.9
2019-03-27T03:07:14.352Z,1020.9
2019-03-27T03:08:16.770Z,1020.9
2019-03-27T03:09:19.392Z,1020.9
2019-03-27T03:10:21.448Z,1020.9
2019-03-27T03:11:23.771Z,1020.9
2019-03-27T03:12:26.412Z,1020.9
2019-03-27T03:13:28.754Z,1020.9
2019-03-27T03:14:30.795Z,1020.9
2019-03-27T03:15:33.150Z,1020.9
2019-03-27T03:16:43.451Z,1020.9
2019-03-27T03:17:45.915Z,1020.9
2019-03-27T03:18:48.255Z,1020.9
2019-03-27T03:19:50.747Z,1020.9
2019-03-27T03:20:52.773Z,1020.9
2019-03-27T03:21:55.236Z,1021
2019-03-27T03:22:58.441Z,1021
2019-03-27T03:24:00.764Z,1021
2019-03-27T03:25:03.310Z,1020.9
2019-03-27T03:26:05.759Z,1021
2019-03-27T03:27:07.791Z,1020.9
2019-03-27T03:28:10.127Z,1020.9
2019-03-27T03:29:12.201Z,1021
2019-03-27T03:30:14.616Z,1021
2019-03-27T03:31:17.009Z,1021
2019-03-27T03:32:19.999Z,1021
2019-03-27T03:33:22.416Z,1021
2019-03-27T03:34:24.832Z,1021
2019-03-27T03:35:27.389Z,1021
2019-03-27T03:36:29.433Z,1021
2019-03-27T03:37:31.508Z,1021
2019-03-27T03:38:33.851Z,1021
2019-03-27T03:39:36.707Z,1021
2019-03-27T03:40:39.261Z,1021
2019-03-27T03:41:41.635Z,1021
2019-03-27T03:42:43.691Z,1020.9
2019-03-27T03:43:46.354Z,1020.9
2019-03-27T03:44:48.804Z,1021
2019-03-27T03:45:51.131Z,1021
2019-03-27T03:47:00.704Z,1021
2019-03-27T03:48:03.272Z,1021
2019-03-27T03:49:05.626Z,1021.1
2019-03-27T03:50:08.563Z,1021.1
2019-03-27T03:51:11.262Z,1021.1
2019-03-27T03:52:13.311Z,1021.1
2019-03-27T03:53:15.679Z,1021
2019-03-27T03:54:18.387Z,1021
2019-03-27T03:55:21.022Z,1021
2019-03-27T03:56:23.627Z,1021
2019-03-27T03:57:25.701Z,1021
2019-03-27T03:58:28.694Z,1021
2019-03-27T03:59:30.760Z,1021
2019-03-27T04:00:33.098Z,1021.1
2019-03-27T04:01:35.181Z,1021.1
2019-03-27T04:02:37.640Z,1021.1
2019-03-27T04:03:39.968Z,1021.1
2019-03-27T04:04:42.381Z,1021.1
2019-03-27T04:05:44.707Z,1021.1
2019-03-27T04:06:47.340Z,1021.1
2019-03-27T04:07:50.260Z,1021.1
2019-03-27T04:08:52.308Z,1021.1
2019-03-27T04:09:54.386Z,1021.1
2019-03-27T04:10:56.450Z,1021.1
2019-03-27T04:11:59.067Z,1021.1
2019-03-27T04:13:01.135Z,1021.2
2019-03-27T04:14:03.490Z,1021.1
2019-03-27T04:15:06.377Z,1021.1
2019-03-27T04:16:09.111Z,1021.2
2019-03-27T04:17:18.151Z,1021.1
2019-03-27T04:18:21.203Z,1021.1
2019-03-27T04:19:23.506Z,1021.1
2019-03-27T04:20:26.137Z,1021.1
2019-03-27T04:21:28.581Z,1021.1
2019-03-27T04:22:30.919Z,1021.1
2019-03-27T04:23:32.956Z,1021.1
2019-03-27T04:24:35.001Z,1021.1
2019-03-27T04:26:09.997Z,1021.1
2019-03-27T04:27:13.058Z,1021.1
2019-03-27T04:28:15.574Z,1021.1
2019-03-27T04:29:18.046Z,1021.1
2019-03-27T04:30:20.407Z,1021.2
2019-03-27T04:31:22.741Z,1021.2
2019-03-27T04:32:25.202Z,1021.2
2019-03-27T04:33:27.270Z,1021.2
2019-03-27T04:34:29.721Z,1021.2
2019-03-27T04:35:32.339Z,1021.2
2019-03-27T04:36:34.662Z,1021.2
2019-03-27T04:37:36.692Z,1021.2
2019-03-27T04:38:39.421Z,1021.1
2019-03-27T04:39:41.865Z,1021.2
2019-03-27T04:40:44.168Z,1021.1
2019-03-27T04:41:46.522Z,1021.1
2019-03-27T04:42:48.566Z,1021.1
2019-03-27T04:43:50.592Z,1021.1
2019-03-27T04:44:52.636Z,1021.1
2019-03-27T04:45:54.959Z,1021.1
2019-03-27T04:46:57.281Z,1021.1
2019-03-27T04:48:00.069Z,1021.1
2019-03-27T04:49:07.318Z,1021.1
2019-03-27T04:50:10.630Z,1021.1
2019-03-27T04:51:13.050Z,1021.1
2019-03-27T04:52:15.098Z,1021.1
2019-03-27T04:53:17.120Z,1021.1
2019-03-27T04:54:19.170Z,1021.1
2019-03-27T04:55:21.479Z,1021.1
2019-03-27T04:56:23.519Z,1021.2
2019-03-27T04:57:25.549Z,1021.2
2019-03-27T04:58:28.252Z,1021.2
2019-03-27T04:59:30.278Z,1021.2
2019-03-27T05:00:32.320Z,1021.2
2019-03-27T05:01:34.654Z,1021.3
2019-03-27T05:02:36.688Z,1021.3
2019-03-27T05:03:39.009Z,1021.3
2019-03-27T05:04:41.629Z,1021.3
2019-03-27T05:05:43.943Z,1021.3
2019-03-27T05:06:46.276Z,1021.3
2019-03-27T05:07:48.302Z,1021.3
2019-03-27T05:08:50.647Z,1021.3
2019-03-27T05:09:52.706Z,1021.3
2019-03-27T05:10:55.112Z,1021.3
2019-03-27T05:11:57.151Z,1021.3
2019-03-27T05:12:59.590Z,1021.3
2019-03-27T05:14:01.621Z,1021.3
2019-03-27T05:15:03.655Z,1021.3
2019-03-27T05:16:05.770Z,1021.2
2019-03-27T05:17:07.791Z,1021.2
2019-03-27T05:18:09.874Z,1021.2
2019-03-27T05:19:12.212Z,1021.3
2019-03-27T05:20:14.578Z,1021.3
2019-03-27T05:21:16.622Z,1021.3
2019-03-27T05:22:18.671Z,1021.3
2019-03-27T05:23:20.785Z,1021.3
2019-03-27T05:24:22.833Z,1021.3
2019-03-27T05:25:24.885Z,1021.3
2019-03-27T05:26:26.914Z,1021.3
2019-03-27T05:27:28.954Z,1021.4
2019-03-27T05:28:30.984Z,1021.3
2019-03-27T05:29:33.080Z,1021.3
2019-03-27T05:30:35.111Z,1021.4
2019-03-27T05:31:37.150Z,1021.4
2019-03-27T05:32:39.461Z,1021.4
2019-03-27T05:33:41.518Z,1021.4
2019-03-27T05:34:43.568Z,1021.4
2019-03-27T05:35:45.928Z,1021.4
2019-03-27T05:36:47.959Z,1021.4
2019-03-27T05:37:50.276Z,1021.5
2019-03-27T05:38:52.310Z,1021.5
2019-03-27T05:39:54.412Z,1021.5
2019-03-27T05:40:56.457Z,1021.4
2019-03-27T05:41:58.484Z,1021.5
2019-03-27T05:43:01.608Z,1021.5
2019-03-27T05:44:03.982Z,1021.4
2019-03-27T05:45:06.030Z,1021.5
2019-03-27T05:46:08.445Z,1021.4
2019-03-27T05:47:10.483Z,1021.5
2019-03-27T05:48:12.532Z,1021.5
2019-03-27T05:49:14.571Z,1021.5
2019-03-27T05:50:16.620Z,1021.5
2019-03-27T05:51:19.054Z,1021.5
2019-03-27T05:52:21.372Z,1021.6
2019-03-27T05:53:23.403Z,1021.6
2019-03-27T05:54:25.729Z,1021.6
2019-03-27T05:55:27.755Z,1021.6
2019-03-27T05:56:29.829Z,1021.6
2019-03-27T05:57:31.872Z,1021.6
2019-03-27T05:58:33.890Z,1021.6
2019-03-27T05:59:35.934Z,1021.6
2019-03-27T06:00:37.966Z,1021.6
2019-03-27T06:01:39.997Z,1021.6
2019-03-27T06:02:42.030Z,1021.7
2019-03-27T06:03:44.351Z,1021.6
2019-03-27T06:04:46.671Z,1021.6
2019-03-27T06:05:48.985Z,1021.6
2019-03-27T06:06:51.024Z,1021.6
2019-03-27T06:07:53.056Z,1021.7
2019-03-27T06:08:55.103Z,1021.6
2019-03-27T06:09:57.137Z,1021.6
2019-03-27T06:10:59.451Z,1021.6
2019-03-27T06:12:01.490Z,1021.6
2019-03-27T06:13:03.561Z,1021.6
2019-03-27T06:14:05.595Z,1021.5
2019-03-27T06:15:07.637Z,1021.6
2019-03-27T06:16:09.967Z,1021.6
2019-03-27T06:17:12.009Z,1021.6
2019-03-27T06:18:14.102Z,1021.6
2019-03-27T06:19:16.174Z,1021.6
2019-03-27T06:20:18.227Z,1021.6
2019-03-27T06:21:20.289Z,1021.6
2019-03-27T06:22:22.883Z,1021.7
2019-03-27T06:23:24.928Z,1021.7
2019-03-27T06:24:27.012Z,1021.7
2019-03-27T06:25:29.061Z,1021.7
2019-03-27T06:26:31.109Z,1021.7
2019-03-27T06:27:33.145Z,1021.7
2019-03-27T06:28:35.177Z,1021.7
2019-03-27T06:29:37.226Z,1021.7
2019-03-27T06:30:39.266Z,1021.7
2019-03-27T06:31:41.286Z,1021.7
2019-03-27T06:32:43.335Z,1021.8
2019-03-27T06:33:45.378Z,1021.7
2019-03-27T06:34:47.407Z,1021.7
2019-03-27T06:35:49.720Z,1021.7
2019-03-27T06:36:52.042Z,1021.7
2019-03-27T06:37:54.354Z,1021.7
2019-03-27T06:38:56.395Z,1021.7
2019-03-27T06:39:58.427Z,1021.6
2019-03-27T06:41:00.832Z,1021.7
2019-03-27T06:42:02.923Z,1021.7
2019-03-27T06:43:04.979Z,1021.6
2019-03-27T06:44:07.017Z,1021.7
2019-03-27T06:45:09.049Z,1021.7
2019-03-27T06:46:11.109Z,1021.7
2019-03-27T06:47:13.145Z,1021.7
2019-03-27T06:48:26.749Z,1021.7
2019-03-27T06:49:29.120Z,1021.7
2019-03-27T06:50:31.425Z,1021.7
2019-03-27T06:51:40.691Z,1021.7
2019-03-27T06:52:42.795Z,1021.6
2019-03-27T06:53:45.112Z,1021.7
2019-03-27T06:54:47.153Z,1021.7
2019-03-27T06:55:49.195Z,1021.7
2019-03-27T06:56:51.230Z,1021.7
2019-03-27T06:57:53.267Z,1021.8
2019-03-27T06:58:55.983Z,1021.7
2019-03-27T06:59:58.016Z,1021.7
2019-03-27T07:01:00.060Z,1021.7
2019-03-27T07:02:02.752Z,1021.7
2019-03-27T07:03:05.072Z,1021.7
2019-03-27T07:04:11.207Z,1021.7
2019-03-27T07:05:13.257Z,1021.7
2019-03-27T07:06:15.592Z,1021.7
2019-03-27T07:07:17.617Z,1021.7
2019-03-27T07:08:19.651Z,1021.7
2019-03-27T07:09:21.691Z,1021.7
2019-03-27T07:10:23.741Z,1021.7
2019-03-27T07:11:25.769Z,1021.7
2019-03-27T07:12:27.819Z,1021.7
2019-03-27T07:13:29.857Z,1021.7
2019-03-27T07:14:31.879Z,1021.7
2019-03-27T07:15:36.178Z,1021.7
2019-03-27T07:16:38.286Z,1021.6
2019-03-27T07:17:40.340Z,1021.7
2019-03-27T07:18:42.384Z,1021.7
2019-03-27T07:19:44.717Z,1021.7
2019-03-27T07:20:46.756Z,1021.7
2019-03-27T07:21:48.861Z,1021.7
2019-03-27T07:22:50.920Z,1021.7
2019-03-27T07:23:52.950Z,1021.7
2019-03-27T07:24:54.982Z,1021.7
2019-03-27T07:25:57.046Z,1021.7
2019-03-27T07:26:59.146Z,1021.7
2019-03-27T07:28:01.181Z,1021.7
2019-03-27T07:29:03.231Z,1021.6
2019-03-27T07:30:05.249Z,1021.6
2019-03-27T07:31:07.968Z,1021.7
2019-03-27T07:32:10.037Z,1021.7
2019-03-27T07:33:12.106Z,1021.7
2019-03-27T07:34:14.140Z,1021.7
2019-03-27T07:35:16.497Z,1021.7
2019-03-27T07:36:18.593Z,1021.8
2019-03-27T07:37:20.636Z,1021.7
2019-03-27T07:38:22.662Z,1021.8
2019-03-27T07:39:24.706Z,1021.7
2019-03-27T07:40:26.735Z,1021.7
2019-03-27T07:41:28.761Z,1021.8
2019-03-27T07:42:30.801Z,1021.8
2019-03-27T07:43:32.849Z,1021.7
2019-03-27T07:44:34.961Z,1021.8
2019-03-27T07:45:36.998Z,1021.8
2019-03-27T07:46:39.339Z,1021.8
2019-03-27T07:47:41.759Z,1021.8
2019-03-27T07:48:54.559Z,1021.8
2019-03-27T07:49:56.758Z,1021.8
2019-03-27T07:50:58.828Z,1021.8
2019-03-27T07:52:00.873Z,1021.8
2019-03-27T07:53:02.949Z,1021.8
2019-03-27T07:54:05.276Z,1021.8
2019-03-27T07:55:20.044Z,1021.8
2019-03-27T07:56:22.439Z,1021.8
2019-03-27T07:57:24.473Z,1021.8
2019-03-27T07:58:26.513Z,1021.9
2019-03-27T07:59:28.615Z,1021.9
2019-03-27T08:00:30.660Z,1021.8
2019-03-27T08:01:32.702Z,1021.9
2019-03-27T08:02:34.738Z,1021.8
2019-03-27T08:03:36.765Z,1021.9
2019-03-27T08:04:38.815Z,1021.9
2019-03-27T08:05:41.236Z,1021.9
2019-03-27T08:06:43.269Z,1021.9
2019-03-27T08:07:45.316Z,1021.9
2019-03-27T08:08:47.450Z,1021.9
2019-03-27T08:09:49.610Z,1022
2019-03-27T08:10:51.651Z,1022
2019-03-27T08:11:53.696Z,1022
2019-03-27T08:12:55.724Z,1022
2019-03-27T08:13:58.052Z,1022
2019-03-27T08:15:00.096Z,1022
2019-03-27T08:16:02.592Z,1022
2019-03-27T08:17:04.635Z,1022
2019-03-27T08:18:06.965Z,1022
2019-03-27T08:19:09.311Z,1022
2019-03-27T08:20:11.425Z,1022
2019-03-27T08:21:13.495Z,1022
2019-03-27T08:22:15.908Z,1021.9
2019-03-27T08:23:18.034Z,1021.9
2019-03-27T08:24:20.079Z,1022
2019-03-27T08:25:22.127Z,1021.9
2019-03-27T08:26:24.154Z,1021.9
2019-03-27T08:27:26.223Z,1021.9
2019-03-27T08:28:28.266Z,1021.9
2019-03-27T08:29:30.304Z,1021.9
2019-03-27T08:30:32.752Z,1021.9
2019-03-27T08:31:34.792Z,1021.9
2019-03-27T08:32:37.893Z,1021.9
2019-03-27T08:33:39.990Z,1021.9
2019-03-27T08:34:43.208Z,1022
2019-03-27T08:35:45.651Z,1022
2019-03-27T08:36:47.699Z,1022
2019-03-27T08:37:49.726Z,1022
2019-03-27T08:38:51.808Z,1022
2019-03-27T08:39:54.118Z,1022
2019-03-27T08:40:56.551Z,1022
2019-03-27T08:41:58.585Z,1022
2019-03-27T08:43:00.904Z,1022.1
2019-03-27T08:44:03.616Z,1022
2019-03-27T08:45:05.644Z,1022
2019-03-27T08:46:07.985Z,1022
2019-03-27T08:47:10.021Z,1022
2019-03-27T08:48:12.070Z,1022
2019-03-27T08:49:22.606Z,1022.1
2019-03-27T08:50:24.735Z,1022.1
2019-03-27T08:51:26.779Z,1022.1
2019-03-27T08:52:28.812Z,1022.1
2019-03-27T08:53:30.838Z,1022.2
2019-03-27T08:54:32.892Z,1022.1
2019-03-27T08:55:34.948Z,1022.2
2019-03-27T08:56:37.002Z,1022.1
2019-03-27T08:57:39.068Z,1022.1
2019-03-27T08:58:41.106Z,1022.2
2019-03-27T08:59:43.421Z,1022.1
2019-03-27T09:00:45.473Z,1022.1
2019-03-27T09:01:47.502Z,1022.1
2019-03-27T09:02:49.542Z,1022.1
2019-03-27T09:03:51.581Z,1022.1
2019-03-27T09:04:53.615Z,1022.1
2019-03-27T09:05:55.649Z,1022.1
2019-03-27T09:06:57.690Z,1022.2
2019-03-27T09:07:59.721Z,1022.2
2019-03-27T09:09:01.753Z,1022.1
2019-03-27T09:10:03.799Z,1022.2
2019-03-27T09:11:05.817Z,1022.1
2019-03-27T09:12:07.865Z,1022.2
2019-03-27T09:13:09.898Z,1022.2
2019-03-27T09:14:11.939Z,1022.2
2019-03-27T09:15:13.972Z,1022.2
2019-03-27T09:16:16.012Z,1022.2
2019-03-27T09:17:18.366Z,1022.2
2019-03-27T09:18:20.399Z,1022.2
2019-03-27T09:19:36.316Z,1022.1
2019-03-27T09:20:38.491Z,1022.1
2019-03-27T09:21:40.532Z,1022.2
2019-03-27T09:22:42.566Z,1022.2
2019-03-27T09:23:46.207Z,1022.2
2019-03-27T09:24:48.545Z,1022.2
2019-03-27T09:25:50.876Z,1022.3
2019-03-27T09:26:52.915Z,1022.2
2019-03-27T09:27:54.942Z,1022.2
2019-03-27T09:28:56.993Z,1022.2
2019-03-27T09:29:59.035Z,1022.2
2019-03-27T09:31:01.236Z,1022.2
2019-03-27T09:32:03.281Z,1022.3
2019-03-27T09:33:05.307Z,1022.2
2019-03-27T09:34:07.355Z,1022.1
2019-03-27T09:35:09.391Z,1022.2
2019-03-27T09:36:12.056Z,1022.2
2019-03-27T09:37:14.417Z,1022.2
2019-03-27T09:38:16.447Z,1022.1
2019-03-27T09:39:18.477Z,1022.1
2019-03-27T09:40:20.526Z,1022.1
2019-03-27T09:41:22.563Z,1022.1
2019-03-27T09:42:24.674Z,1022.1
2019-03-27T09:43:26.722Z,1022.1
2019-03-27T09:44:28.758Z,1022.2
2019-03-27T09:45:30.800Z,1022.1
2019-03-27T09:46:33.176Z,1022.1
2019-03-27T09:47:35.226Z,1022.1
2019-03-27T09:48:37.638Z,1022.1
2019-03-27T09:49:50.158Z,1022.2
2019-03-27T09:50:52.575Z,1022.1
2019-03-27T09:51:54.887Z,1022.1
2019-03-27T09:52:56.937Z,1022.1
2019-03-27T09:53:58.969Z,1022.1
2019-03-27T09:55:01.020Z,1022
2019-03-27T09:56:03.080Z,1022.1
2019-03-27T09:57:20.947Z,1022.1
2019-03-27T09:58:22.988Z,1022.1
2019-03-27T09:59:25.032Z,1022.1
2019-03-27T10:00:27.745Z,1022
2019-03-27T10:01:29.837Z,1022.1
2019-03-27T10:02:32.202Z,1022.2
2019-03-27T10:03:34.311Z,1022.1
2019-03-27T10:04:36.362Z,1022.2
2019-03-27T10:05:38.449Z,1022.2
2019-03-27T10:06:40.489Z,1022.2
2019-03-27T10:07:42.528Z,1022.2
2019-03-27T10:08:44.556Z,1022.1
2019-03-27T10:09:46.597Z,1022.2
2019-03-27T10:10:52.285Z,1022.1
2019-03-27T10:11:54.343Z,1022.2
2019-03-27T10:12:56.656Z,1022.2
2019-03-27T10:13:58.698Z,1022.2
2019-03-27T10:15:01.128Z,1022.1
2019-03-27T10:16:03.167Z,1022.1
2019-03-27T10:17:05.226Z,1022.1
2019-03-27T10:18:07.247Z,1022.2
2019-03-27T10:19:09.281Z,1022.1
2019-03-27T10:20:13.985Z,1022.2
2019-03-27T10:21:16.033Z,1022.2
2019-03-27T10:22:18.070Z,1022.2
2019-03-27T10:23:20.128Z,1022.2
2019-03-27T10:24:22.163Z,1022.2
2019-03-27T10:25:24.479Z,1022.3
2019-03-27T10:26:26.556Z,1022.2
2019-03-27T10:27:28.591Z,1022.2
2019-03-27T10:28:30.645Z,1022.1
2019-03-27T10:29:32.685Z,1022.2
2019-03-27T10:30:34.963Z,1022.1
2019-03-27T10:31:36.998Z,1022.2
2019-03-27T10:32:39.440Z,1022.2
2019-03-27T10:33:41.555Z,1022.1
2019-03-27T10:34:43.623Z,1022.2
2019-03-27T10:35:46.231Z,1022.1
2019-03-27T10:36:48.851Z,1022.1
2019-03-27T10:37:50.887Z,1022.1
2019-03-27T10:38:52.931Z,1022
2019-03-27T10:39:54.982Z,1022
2019-03-27T10:40:57.375Z,1022.1
2019-03-27T10:41:59.476Z,1022.1
2019-03-27T10:43:01.512Z,1022
2019-03-27T10:44:03.541Z,1022.1
2019-03-27T10:45:05.577Z,1022.1
2019-03-27T10:46:07.627Z,1022
2019-03-27T10:47:09.648Z,1022.2
2019-03-27T10:48:12.085Z,1022
2019-03-27T10:49:14.130Z,1022
2019-03-27T10:50:18.358Z,1022
2019-03-27T10:51:20.442Z,1021.9
2019-03-27T10:52:22.548Z,1022
2019-03-27T10:53:24.587Z,1022.1
2019-03-27T10:54:26.616Z,1022.1
2019-03-27T10:55:28.668Z,1022
2019-03-27T10:56:30.704Z,1022
2019-03-27T10:57:33.030Z,1022
2019-03-27T10:58:35.108Z,1022
2019-03-27T10:59:37.493Z,1022
2019-03-27T11:00:39.628Z,1022
2019-03-27T11:01:41.679Z,1022
2019-03-27T11:02:44.124Z,1021.9
2019-03-27T11:03:46.156Z,1021.9
2019-03-27T11:04:48.300Z,1022
2019-03-27T11:05:50.346Z,1021.9
2019-03-27T11:06:52.409Z,1022
2019-03-27T11:07:54.465Z,1022
2019-03-27T11:08:56.510Z,1022.1
2019-03-27T11:09:58.541Z,1022
2019-03-27T11:11:00.965Z,1022.1
2019-03-27T11:12:03.393Z,1022.1
2019-03-27T11:13:05.880Z,1022
2019-03-27T11:14:07.921Z,1022
2019-03-27T11:15:10.226Z,1022
2019-03-27T11:16:12.300Z,1022
2019-03-27T11:17:14.345Z,1022
2019-03-27T11:18:16.970Z,1022
2019-03-27T11:19:18.997Z,1022
2019-03-27T11:20:31.778Z,1022.1
2019-03-27T11:21:34.234Z,1022
2019-03-27T11:22:36.314Z,1021.9
2019-03-27T11:23:38.373Z,1022
2019-03-27T11:24:40.427Z,1021.9
2019-03-27T11:25:42.480Z,1022
2019-03-27T11:26:44.525Z,1022
2019-03-27T11:27:46.560Z,1021.9
2019-03-27T11:28:48.607Z,1022
2019-03-27T11:29:50.645Z,1021.9
2019-03-27T11:30:52.690Z,1022
2019-03-27T11:31:55.036Z,1022
2019-03-27T11:32:57.340Z,1021.9
2019-03-27T11:33:59.391Z,1022
2019-03-27T11:35:02.100Z,1022
2019-03-27T11:36:04.202Z,1021.9
2019-03-27T11:37:06.869Z,1021.9
2019-03-27T11:38:08.912Z,1021.9
2019-03-27T11:39:10.969Z,1021.9
2019-03-27T11:40:13.018Z,1021.9
2019-03-27T11:41:15.473Z,1021.9
2019-03-27T11:42:17.524Z,1021.9
2019-03-27T11:43:19.561Z,1021.9
2019-03-27T11:44:21.990Z,1021.9
2019-03-27T11:45:24.028Z,1021.9
2019-03-27T11:46:26.100Z,1021.9
2019-03-27T11:47:28.440Z,1021.9
2019-03-27T11:48:30.859Z,1022
2019-03-27T11:49:32.908Z,1021.9
2019-03-27T11:50:45.621Z,1021.8
2019-03-27T11:51:48.278Z,1021.9
2019-03-27T11:52:50.330Z,1021.8
2019-03-27T11:53:52.665Z,1021.9
2019-03-27T11:54:54.713Z,1021.9
2019-03-27T11:55:56.750Z,1021.9
2019-03-27T11:56:58.800Z,1021.9
2019-03-27T11:58:00.824Z,1022
2019-03-27T11:59:02.862Z,1021.9
2019-03-27T12:00:04.918Z,1022
2019-03-27T12:01:06.977Z,1021.9
2019-03-27T12:02:09.011Z,1021.9
2019-03-27T12:03:11.090Z,1021.9
2019-03-27T12:04:13.126Z,1022
2019-03-27T12:05:15.163Z,1022
2019-03-27T12:06:17.515Z,1022
2019-03-27T12:07:19.561Z,1021.9
2019-03-27T12:08:21.606Z,1022
2019-03-27T12:09:23.650Z,1022
2019-03-27T12:10:25.714Z,1022
2019-03-27T12:11:28.133Z,1021.9
2019-03-27T12:12:30.174Z,1022
2019-03-27T12:13:32.231Z,1022
2019-03-27T12:14:34.267Z,1022
2019-03-27T12:15:36.706Z,1021.9
2019-03-27T12:16:38.840Z,1022
2019-03-27T12:17:40.880Z,1021.9
2019-03-27T12:18:43.625Z,1022
2019-03-27T12:19:45.678Z,1022
2019-03-27T12:20:59.799Z,1022.1
2019-03-27T12:22:01.957Z,1022.1
2019-03-27T12:23:04.000Z,1022
2019-03-27T12:24:06.113Z,1022
2019-03-27T12:25:08.168Z,1022
2019-03-27T12:26:10.233Z,1022
2019-03-27T12:27:12.262Z,1022
2019-03-27T12:28:14.363Z,1022
2019-03-27T12:29:18.501Z,1022
2019-03-27T12:30:20.602Z,1022.1
2019-03-27T12:31:22.656Z,1022
2019-03-27T12:32:25.388Z,1022
2019-03-27T12:33:27.820Z,1022.1
2019-03-27T12:34:29.882Z,1022
2019-03-27T12:35:32.364Z,1022
2019-03-27T12:36:34.397Z,1022
2019-03-27T12:37:36.433Z,1022
2019-03-27T12:38:38.866Z,1022
2019-03-27T12:39:41.445Z,1022
2019-03-27T12:40:43.494Z,1022
2019-03-27T12:41:45.537Z,1022
2019-03-27T12:42:47.596Z,1022
2019-03-27T12:43:49.643Z,1022.1
2019-03-27T12:44:52.063Z,1022.1
2019-03-27T12:45:54.107Z,1021.9
2019-03-27T12:46:56.152Z,1022
2019-03-27T12:47:58.190Z,1022
2019-03-27T12:49:00.234Z,1021.8
2019-03-27T12:50:02.279Z,1022
2019-03-27T12:51:13.504Z,1021.9
2019-03-27T12:52:15.645Z,1021.9
2019-03-27T12:53:17.685Z,1021.9
2019-03-27T12:54:20.103Z,1021.9
2019-03-27T12:55:22.167Z,1022
2019-03-27T12:56:24.212Z,1021.9
2019-03-27T12:57:26.240Z,1021.9
2019-03-27T12:58:28.273Z,1022
2019-03-27T12:59:30.313Z,1021.9
2019-03-27T13:00:32.344Z,1022
2019-03-27T13:01:34.665Z,1022
2019-03-27T13:02:37.175Z,1021.9
2019-03-27T13:03:39.218Z,1022
2019-03-27T13:04:41.277Z,1021.9
2019-03-27T13:05:43.394Z,1021.9
2019-03-27T13:06:45.441Z,1022
2019-03-27T13:07:50.566Z,1022
2019-03-27T13:08:53.023Z,1022
2019-03-27T13:09:55.067Z,1022